Hovedside
METAR-TAF:

METAR-TAF

Lufthavner :

Røros, Norge

Røros lufthavn

breddegrad: 62-35N, lengdegrad: 011-21E, høyde over havet: 626 m

Gjeldene værobservasjon

Denne rapporten ble laget for 36 minutter siden, klokken 21:20 UTC
Vind 6 kt fra Øst-sørøst
Temperatur 10°C
Luftfuktighet 100%
Trykk 1005 hPa
Sikt 10 km eller mer

METAR: ENRO 182120Z AUTO 12006KT 9999NDV SCT020/// 10/10 Q1005

Tid: 23:56 (21:56 UTC)

Varsel

Denne rapporten ble laget for 10 timer og 56 minutter siden, klokken 11:00 UTC
Varsel gyldig fra 18. klokken 12 UTC til 18. klokken 18 UTC
Vind 8 kt fra Øst-sørøst
Sikt 10 km eller mer
Få skyer i en høyde av 1000 ft
Brutte skyer i en høyde av 2000 ft
lett regn
Midlertidig
fra 18. klokken 12 UTC til 18. klokken 18 UTC
Spredte skyer i en høyde av 800 ft
Brutte skyer i en høyde av 1200 ft

TAF: ENRO 181100Z 1812/1818 12008KT 9999 -RA FEW010 BKN020 TEMPO 1812/1818 SCT008 BKN012

Værobservasjoner og værvarsel for over 4000 flyplasser (METAR- og TAF-rapporter).

Tilgjengelige stasjoner er representert av de røde og gule prikkene på kartet.

Hold musepekeren over prikken for å se navnet på stasjonen.

Klikk så for å se værobservasjoner og -varsler.

For å forandre kartet kan du klikke på den grønne knappen med svart kryss for å zoome inn, på den grønne knappen med strek for å zoome ut, eller på de grønne pilene for å se tilstøtende kart.


METAR-TAF: